Terminal Aerodrome Forecast
Issued by NWS Grand Junction, CO

Home | Current Version | Previous Version | Text Only | Print | Product List | Glossary On
Versions: 1 2 3 4 5 6 7 8 9 10 11 12 13 14 15 16 17 18 19 20 21 22 23 24 25 26 27 28 29 30 31 32 33 34 35 36 37 38 39 40 41
000
FTUS45 KGJT 060700 AAA
TAFGJT
TAF AMD
KGJT 060700Z 0607/0706 33005KT P6SM VCSH FEW025 SCT050 OVC070
      TEMPO 0607/0609 -SHRA SCT020 BKN025 OVC035
     FM061600 13004KT P6SM -SHRA SCT040 OVC060
     FM062000 22009KT P6SM VCSH SCT050 BKN070
     FM070200 13008KT P6SM BKN080=

USA.gov is the U.S. government's official web portal to all federal, state and local government web resources and services.